Time;durP1;ratioP1;P1;durP2;ratioP2;P2;SDS_P1;SDS_P2;PMS_P1;PMS_P2;Temp;Humidity;BMP_temperature;BMP_pressure;BME280_temperature;BME280_humidity;BME280_pressure;Samples;Min_cycle;Max_cycle;Signal;HPM_P1;HPM_P2
2023/01/22 00:01:04;;;;;;;57.90;37.50;;;;;;;8.60;96.39;99411.13;5051315;28;20669;-70
2023/01/22 00:03:30;;;;;;;60.47;35.97;;;;;;;8.65;96.49;99406.09;5039995;28;20259;-71
2023/01/22 00:05:57;;;;;;;58.13;36.77;;;;;;;8.73;96.71;99416.59;5031832;28;20197;-70
2023/01/22 00:08:24;;;;;;;59.97;36.03;;;;;;;8.72;96.58;99425.53;5037771;28;20262;-70
2023/01/22 00:10:51;;;;;;;62.30;36.63;;;;;;;8.72;95.67;99436.13;5051751;28;20193;-69
2023/01/22 00:13:20;;;;;;;58.97;36.83;;;;;;;8.76;96.14;99437.41;5040979;28;20248;-68
2023/01/22 00:15:46;;;;;;;54.73;34.13;;;;;;;8.79;96.36;99442.34;5043062;28;20647;-70
2023/01/22 00:18:13;;;;;;;58.37;35.07;;;;;;;8.79;96.60;99447.63;5055361;28;20192;-70
2023/01/22 00:20:40;;;;;;;65.40;35.73;;;;;;;8.83;95.76;99449.69;5055260;28;20196;-70
2023/01/22 00:23:07;;;;;;;61.83;39.07;;;;;;;8.85;95.94;99452.16;5055099;28;20200;-70
2023/01/22 00:25:33;;;;;;;66.20;40.17;;;;;;;8.87;95.25;99444.88;5054708;28;20188;-70
2023/01/22 00:28:00;;;;;;;64.70;37.67;;;;;;;8.87;95.71;99439.56;5054872;28;20219;-70
2023/01/22 00:30:28;;;;;;;64.73;39.10;;;;;;;8.82;96.50;99437.47;5047785;28;20669;-70
2023/01/22 00:32:55;;;;;;;63.20;38.77;;;;;;;8.88;96.58;99449.16;5040928;28;20188;-70
2023/01/22 00:35:21;;;;;;;63.03;37.70;;;;;;;8.84;96.37;99437.28;5053932;28;20666;-70
2023/01/22 00:37:48;;;;;;;61.03;37.87;;;;;;;8.81;97.09;99435.00;5054595;28;20674;-71
2023/01/22 00:40:15;;;;;;;64.07;38.23;;;;;;;8.78;97.88;99438.84;5054555;28;20196;-70
2023/01/22 00:42:42;;;;;;;61.67;36.43;;;;;;;8.83;97.21;99438.31;5050167;28;20742;-71
2023/01/22 00:45:09;;;;;;;61.73;36.27;;;;;;;8.72;97.01;99415.78;5034927;28;20246;-71
2023/01/22 00:47:37;;;;;;;59.20;36.90;;;;;;;8.92;97.99;99453.06;5034934;28;20283;-71
2023/01/22 00:50:05;;;;;;;62.50;37.33;;;;;;;8.94;98.20;99467.78;5034698;28;20189;-71
2023/01/22 00:52:31;;;;;;;61.80;37.60;;;;;;;8.86;97.35;99461.78;5045527;28;20197;-71
2023/01/22 00:54:58;;;;;;;58.63;37.30;;;;;;;8.90;97.59;99463.84;5049187;28;20933;-71
2023/01/22 00:57:25;;;;;;;61.03;37.47;;;;;;;8.98;97.70;99462.91;5034736;28;20217;-71
2023/01/22 00:59:52;;;;;;;59.37;36.40;;;;;;;8.99;97.13;99480.47;5034547;28;20256;-71
2023/01/22 01:02:19;;;;;;;59.20;37.33;;;;;;;8.88;96.84;99478.28;5034520;28;20255;-72
2023/01/22 01:04:47;;;;;;;65.10;37.00;;;;;;;8.87;98.32;99476.66;5050674;28;20282;-72
2023/01/22 01:07:13;;;;;;;58.13;36.07;;;;;;;8.96;98.67;99478.19;5054145;28;20200;-77
2023/01/22 01:09:40;;;;;;;55.70;34.97;;;;;;;8.86;98.79;99464.44;5050815;28;20195;-71
2023/01/22 01:12:08;;;;;;;54.17;34.93;;;;;;;9.01;98.15;99494.34;5037156;28;20255;-72
2023/01/22 01:14:35;;;;;;;60.03;36.03;;;;;;;8.97;97.24;99503.66;5034351;28;20193;-72
2023/01/22 01:17:01;;;;;;;54.20;35.00;;;;;;;8.87;97.49;99514.53;5034214;28;20287;-71
2023/01/22 01:19:28;;;;;;;59.57;34.77;;;;;;;8.89;97.82;99511.72;5041051;28;20196;-72
2023/01/22 01:21:56;;;;;;;57.53;35.20;;;;;;;8.87;97.70;99508.44;5053773;28;20192;-71
2023/01/22 01:24:23;;;;;;;53.53;35.20;;;;;;;8.99;98.23;99522.88;5053377;28;20286;-70
2023/01/22 01:26:50;;;;;;;67.10;43.47;;;;;;;9.05;98.22;99527.41;5053465;28;20254;-70
2023/01/22 01:29:16;;;;;;;63.37;39.47;;;;;;;8.94;97.69;99519.94;5053710;28;20188;-71
2023/01/22 01:31:43;;;;;;;59.03;36.03;;;;;;;8.99;97.69;99538.75;5052815;28;20624;-71
2023/01/22 01:34:10;;;;;;;63.20;38.07;;;;;;;9.00;98.00;99541.22;5053560;28;20624;-71
2023/01/22 01:36:37;;;;;;;59.30;34.87;;;;;;;9.05;97.71;99533.53;5053646;28;20298;-72
2023/01/22 01:39:05;;;;;;;53.10;34.23;;;;;;;9.15;98.17;99538.53;5053490;28;20234;-70
2023/01/22 01:41:31;;;;;;;53.30;35.53;;;;;;;9.17;97.63;99532.06;5034205;28;20262;-71
2023/01/22 01:44:14;;;;;;;66.30;37.20;;;;;;;9.26;96.92;99535.41;5034103;28;20554;-70
2023/01/22 01:46:44;;;;;;;56.03;34.03;;;;;;;9.34;97.01;99524.69;5051360;28;20262;-70
2023/01/22 01:49:19;;;;;;;60.43;37.90;;;;;;;9.28;96.27;99528.09;5053854;28;20192;-70
2023/01/22 01:51:47;;;;;;;59.10;35.63;;;;;;;9.27;97.20;99513.22;5052653;28;20238;-70
2023/01/22 01:54:17;;;;;;;54.53;34.23;;;;;;;9.22;96.64;99510.28;5053251;28;20726;-70
2023/01/22 01:56:48;;;;;;;51.37;33.63;;;;;;;9.30;96.96;99500.41;5053316;28;20270;-70
2023/01/22 01:59:18;;;;;;;53.57;33.03;;;;;;;9.36;96.98;99504.13;5053190;28;20778;-70
2023/01/22 02:01:49;;;;;;;56.50;31.43;;;;;;;9.35;97.05;99499.84;5051649;28;20189;-71
2023/01/22 02:04:16;;;;;;;53.07;32.50;;;;;;;9.39;96.90;99509.88;5053563;28;20648;-71
2023/01/22 02:06:43;;;;;;;53.23;32.63;;;;;;;9.34;97.45;99508.78;5052962;28;20659;-72
2023/01/22 02:09:09;;;;;;;49.57;30.60;;;;;;;9.34;97.35;99501.66;5052943;28;20549;-70
2023/01/22 02:11:40;;;;;;;55.17;33.03;;;;;;;9.37;96.82;99489.84;5037355;28;20193;-70
2023/01/22 02:14:10;;;;;;;48.17;31.40;;;;;;;9.39;96.32;99509.88;5033326;28;20182;-70
2023/01/22 02:16:36;;;;;;;49.27;31.83;;;;;;;9.38;97.10;99512.69;5049355;28;20208;-69
2023/01/22 02:19:04;;;;;;;47.90;29.73;;;;;;;9.42;96.74;99504.19;5053212;28;20192;-69
2023/01/22 02:21:35;;;;;;;45.63;30.13;;;;;;;9.50;96.86;99511.19;5052921;28;20200;-73
2023/01/22 02:24:02;;;;;;;50.90;31.27;;;;;;;9.50;96.41;99505.91;5052525;28;20316;-69
2023/01/22 02:26:29;;;;;;;47.27;30.73;;;;;;;9.52;96.91;99501.25;5034508;28;20200;-69
2023/01/22 02:28:56;;;;;;;46.33;29.90;;;;;;;9.59;97.09;99504.75;5033301;28;20197;-69
2023/01/22 02:31:22;;;;;;;44.90;30.53;;;;;;;9.62;96.98;99504.38;5046978;28;20643;-69
2023/01/22 02:33:50;;;;;;;51.50;30.87;;;;;;;9.68;97.09;99501.00;5052522;28;20193;-69
2023/01/22 02:36:17;;;;;;;48.90;30.07;;;;;;;9.67;96.79;99515.25;5052583;28;20196;-69
2023/01/22 02:38:45;;;;;;;44.80;30.93;;;;;;;9.69;97.56;99518.53;5050284;28;20683;-69
2023/01/22 02:41:12;;;;;;;48.53;31.63;;;;;;;9.63;97.19;99517.47;5052310;28;20246;-69
2023/01/22 02:43:39;;;;;;;51.50;30.93;;;;;;;9.63;97.86;99521.94;5052695;28;20568;-69
2023/01/22 02:46:05;;;;;;;58.43;37.27;;;;;;;9.54;97.90;99529.19;5052617;28;20196;-69
2023/01/22 02:48:32;;;;;;;55.20;33.83;;;;;;;9.41;98.36;99528.22;5052283;28;20250;-69
2023/01/22 02:50:59;;;;;;;54.80;34.03;;;;;;;9.42;99.08;99532.53;5044216;28;20576;-70
2023/01/22 02:53:26;;;;;;;54.50;33.37;;;;;;;9.43;99.40;99537.63;5032364;28;20253;-69
2023/01/22 02:55:54;;;;;;;50.70;32.33;;;;;;;9.43;100.00;99526.19;5032266;28;20819;-69
2023/01/22 02:58:20;;;;;;;52.30;32.70;;;;;;;9.45;100.00;99521.56;5032354;28;20351;-69
2023/01/22 03:00:47;;;;;;;55.73;35.80;;;;;;;9.44;99.98;99528.66;5046613;28;20197;-69
2023/01/22 03:03:15;;;;;;;53.93;33.90;;;;;;;9.45;99.66;99530.34;5032122;28;20197;-69
2023/01/22 03:05:46;;;;;;;49.73;31.80;;;;;;;9.48;100.00;99529.94;5032413;28;20193;-70
2023/01/22 03:08:13;;;;;;;52.37;30.57;;;;;;;9.54;100.00;99528.38;5032411;28;20189;-71
2023/01/22 03:10:40;;;;;;;51.27;32.40;;;;;;;9.52;99.58;99541.00;5032049;28;20193;-71
2023/01/22 03:21:20;;;;;;;49.73;31.00;;;;;;;9.54;100.00;99534.50;5047777;28;20193;-71
2023/01/22 03:23:49;;;;;;;49.43;31.50;;;;;;;9.56;100.00;99534.31;5032107;28;20328;-71
2023/01/22 03:26:17;;;;;;;50.60;33.33;;;;;;;9.61;100.00;99534.56;5032105;28;20189;-71
2023/01/22 03:28:45;;;;;;;49.20;32.17;;;;;;;9.62;99.68;99530.91;5032037;28;20263;-71
2023/01/22 03:31:14;;;;;;;51.90;33.57;;;;;;;9.57;99.22;99534.13;5044379;28;20195;-71
2023/01/22 03:33:41;;;;;;;48.73;32.80;;;;;;;9.50;99.34;99530.59;5051604;28;20734;-71
2023/01/22 03:36:10;;;;;;;49.80;32.63;;;;;;;9.47;100.00;99517.69;5051257;28;20188;-71
2023/01/22 03:38:37;;;;;;;53.97;33.43;;;;;;;9.47;100.00;99528.31;5051442;28;20221;-71
2023/01/22 03:41:06;;;;;;;57.93;33.93;;;;;;;9.44;100.00;99522.56;5051597;28;20661;-70
2023/01/22 03:43:33;;;;;;;48.67;31.90;;;;;;;9.51;100.00;99534.03;5037360;28;20193;-71
2023/01/22 03:46:04;;;;;;;56.73;32.93;;;;;;;9.49;100.00;99536.91;5031793;28;20601;-70
2023/01/22 03:48:30;;;;;;;50.87;31.53;;;;;;;9.40;100.00;99545.16;5036617;28;20254;-70
2023/01/22 03:50:57;;;;;;;53.50;33.40;;;;;;;9.39;100.00;99546.19;5052881;28;20193;-70
2023/01/22 03:53:24;;;;;;;57.90;33.93;;;;;;;9.42;100.00;99551.06;5054740;28;20224;-70
2023/01/22 03:55:58;;;;;;;54.13;33.20;;;;;;;9.40;100.00;99550.47;5055777;28;20196;-70
2023/01/22 03:58:25;;;;;;;50.40;31.27;;;;;;;9.41;100.00;99554.75;5052374;28;20249;-70
2023/01/22 04:00:56;;;;;;;68.10;37.27;;;;;;;9.45;100.00;99550.72;5035871;28;20193;-70
2023/01/22 04:03:25;;;;;;;55.23;34.30;;;;;;;9.46;100.00;99553.19;5035391;28;20195;-70
2023/01/22 04:05:52;;;;;;;56.20;34.13;;;;;;;9.40;100.00;99547.81;5035414;28;20193;-70
2023/01/22 04:08:19;;;;;;;58.00;34.57;;;;;;;9.42;100.00;99551.06;5035547;28;20258;-70
2023/01/22 04:10:46;;;;;;;59.30;32.37;;;;;;;9.49;100.00;99557.28;5038629;28;20273;-70
2023/01/22 04:13:12;;;;;;;52.47;32.10;;;;;;;9.54;100.00;99571.63;5054329;28;20254;-71
2023/01/22 04:15:39;;;;;;;48.97;31.33;;;;;;;9.60;100.00;99580.66;5055043;28;20242;-71
2023/01/22 04:18:06;;;;;;;46.60;30.63;;;;;;;9.65;100.00;99591.53;5054868;28;20226;-70
2023/01/22 04:20:34;;;;;;;50.53;32.57;;;;;;;9.61;100.00;99588.41;5055363;28;20196;-70
2023/01/22 04:23:01;;;;;;;53.07;31.43;;;;;;;9.55;100.00;99588.34;5053475;28;20245;-70
2023/01/22 04:25:28;;;;;;;54.30;32.43;;;;;;;9.59;100.00;99600.22;5054823;28;20188;-70
2023/01/22 04:27:54;;;;;;;52.03;33.77;;;;;;;9.56;100.00;99600.63;5054707;28;20692;-70
2023/01/22 04:30:22;;;;;;;51.10;31.97;;;;;;;9.59;100.00;99610.81;5054153;28;20579;-70
2023/01/22 04:32:49;;;;;;;45.60;31.70;;;;;;;9.57;100.00;99621.66;5055028;28;20200;-70
2023/01/22 04:35:16;;;;;;;46.90;32.03;;;;;;;9.64;100.00;99624.38;5045232;28;20270;-70
2023/01/22 04:37:44;;;;;;;44.53;31.27;;;;;;;9.64;100.00;99619.06;5046181;28;20773;-71
2023/01/22 04:40:11;;;;;;;50.13;31.57;;;;;;;9.71;100.00;99626.06;5055027;28;20192;-70
2023/01/22 04:42:38;;;;;;;47.33;30.93;;;;;;;9.76;100.00;99633.47;5054542;28;20725;-70
2023/01/22 04:45:05;;;;;;;49.53;32.37;;;;;;;9.77;100.00;99630.63;5047726;28;20186;-70
2023/01/22 04:47:32;;;;;;;50.20;31.43;;;;;;;9.73;100.00;99634.66;5034809;28;20201;-70
2023/01/22 04:49:59;;;;;;;51.37;31.77;;;;;;;9.79;100.00;99638.38;5034449;28;20233;-70
2023/01/22 04:52:26;;;;;;;46.27;30.43;;;;;;;9.78;100.00;99640.25;5052677;28;20204;-71
2023/01/22 04:54:54;;;;;;;48.57;31.03;;;;;;;9.80;100.00;99651.47;5054390;28;20196;-70
2023/01/22 04:57:20;;;;;;;51.87;31.60;;;;;;;9.76;100.00;99644.09;5045533;28;20212;-72
2023/01/22 04:59:47;;;;;;;51.27;31.87;;;;;;;9.70;100.00;99636.88;5034334;28;20190;-70
2023/01/22 05:02:14;;;;;;;54.43;32.77;;;;;;;9.68;100.00;99649.50;5034014;28;20201;-69
2023/01/22 05:04:40;;;;;;;46.07;30.80;;;;;;;9.62;100.00;99663.50;5034588;28;20197;-70
2023/01/22 05:07:07;;;;;;;46.83;28.77;;;;;;;9.56;100.00;99669.56;5035369;28;20193;-69
2023/01/22 05:09:34;;;;;;;46.20;30.63;;;;;;;9.45;100.00;99667.38;5034451;28;20263;-69
2023/01/22 05:12:02;;;;;;;48.43;31.17;;;;;;;9.40;100.00;99670.56;5034167;28;20677;-69
2023/01/22 05:14:28;;;;;;;43.50;27.27;;;;;;;9.22;100.00;99677.22;5033957;28;20208;-70
2023/01/22 05:16:55;;;;;;;46.07;28.23;;;;;;;9.26;100.00;99678.50;5034341;28;20255;-69
2023/01/22 05:19:22;;;;;;;41.90;28.07;;;;;;;9.29;100.00;99676.34;5033789;28;20569;-69
2023/01/22 05:21:48;;;;;;;44.63;27.17;;;;;;;9.35;100.00;99674.78;5034146;28;20189;-69
2023/01/22 05:24:17;;;;;;;47.47;27.40;;;;;;;9.44;100.00;99660.44;5047897;28;20696;-70
2023/01/22 05:26:43;;;;;;;44.27;28.53;;;;;;;9.48;100.00;99667.00;5054060;28;20661;-70
2023/01/22 05:29:12;;;;;;;48.13;28.10;;;;;;;9.52;100.00;99673.59;5053963;28;20197;-70
2023/01/22 05:31:38;;;;;;;46.57;29.37;;;;;;;9.59;100.00;99685.06;5043793;28;20248;-70
2023/01/22 05:34:05;;;;;;;47.13;29.73;;;;;;;9.60;100.00;99681.44;5033579;28;20200;-70
2023/01/22 05:36:32;;;;;;;46.73;28.40;;;;;;;9.66;100.00;99692.13;5033831;28;20193;-71
2023/01/22 05:38:58;;;;;;;44.63;29.30;;;;;;;9.69;100.00;99701.53;5033995;28;20221;-71
2023/01/22 05:41:25;;;;;;;45.40;28.30;;;;;;;9.75;100.00;99698.13;5033920;28;20250;-70
2023/01/22 05:43:52;;;;;;;42.40;29.00;;;;;;;9.79;100.00;99712.66;5033994;28;20197;-69
2023/01/22 05:46:20;;;;;;;42.43;28.77;;;;;;;9.82;100.00;99718.44;5033834;28;20197;-69
2023/01/22 05:48:46;;;;;;;43.93;27.23;;;;;;;9.84;100.00;99711.09;5033474;28;20351;-70
2023/01/22 05:51:13;;;;;;;39.40;27.30;;;;;;;9.85;100.00;99717.25;5043033;28;20255;-70
2023/01/22 05:53:40;;;;;;;45.50;27.80;;;;;;;9.85;100.00;99726.00;5033582;28;20251;-71
2023/01/22 05:56:07;;;;;;;48.77;27.77;;;;;;;9.90;100.00;99721.00;5033618;28;20706;-69
2023/01/22 05:58:34;;;;;;;42.27;26.57;;;;;;;9.90;100.00;99709.53;5033053;28;20233;-68
2023/01/22 06:01:00;;;;;;;38.37;26.77;;;;;;;9.92;100.00;99702.22;5043236;28;20552;-70
2023/01/22 06:03:28;;;;;;;43.23;27.87;;;;;;;9.96;100.00;99692.88;5033300;28;20197;-69
2023/01/22 06:05:59;;;;;;;68.43;37.90;;;;;;;10.00;100.00;99705.59;5033148;28;20548;-68
2023/01/22 06:08:26;;;;;;;49.47;28.57;;;;;;;9.99;100.00;99743.75;5033216;28;20194;-68
2023/01/22 06:10:59;;;;;;;44.27;27.37;;;;;;;10.00;100.00;99748.03;5034034;28;20251;-73
2023/01/22 06:13:26;;;;;;;48.63;27.37;;;;;;;9.94;100.00;99740.84;5050853;28;20188;-68
2023/01/22 06:15:53;;;;;;;47.70;29.37;;;;;;;9.85;100.00;99728.66;5052105;28;20579;-69
2023/01/22 06:18:20;;;;;;;56.70;32.97;;;;;;;9.93;100.00;99741.03;5052275;28;20289;-74
2023/01/22 06:20:48;;;;;;;50.97;29.73;;;;;;;9.95;100.00;99754.91;5052688;28;20197;-67
2023/01/22 06:23:15;;;;;;;48.93;28.37;;;;;;;9.99;100.00;99753.53;5052569;28;20718;-68
2023/01/22 06:25:43;;;;;;;48.17;29.17;;;;;;;9.98;100.00;99754.56;5052944;28;20197;-68
2023/01/22 06:28:09;;;;;;;48.30;29.27;;;;;;;9.95;100.00;99765.53;5052849;28;20258;-69
2023/01/22 06:30:36;;;;;;;48.90;31.13;;;;;;;9.98;100.00;99773.13;5042847;28;20244;-69
2023/01/22 06:33:04;;;;;;;44.97;28.20;;;;;;;9.96;100.00;99772.47;5052799;28;20201;-68
2023/01/22 06:35:31;;;;;;;45.60;27.63;;;;;;;9.98;100.00;99781.09;5052730;28;20634;-68
2023/01/22 06:37:59;;;;;;;47.40;28.53;;;;;;;10.04;100.00;99785.63;5051813;28;20281;-68
2023/01/22 06:40:25;;;;;;;47.60;28.63;;;;;;;10.02;100.00;99798.28;5052639;28;20189;-70
2023/01/22 06:42:52;;;;;;;43.80;27.17;;;;;;;9.97;100.00;99808.63;5052410;28;20734;-68
2023/01/22 06:45:19;;;;;;;48.37;28.63;;;;;;;9.93;100.00;99808.16;5051557;28;20250;-70
2023/01/22 06:47:46;;;;;;;42.20;27.40;;;;;;;9.87;100.00;99805.41;5052234;28;20254;-70
2023/01/22 06:50:13;;;;;;;47.07;27.93;;;;;;;9.88;100.00;99804.41;5051330;28;20817;-68
2023/01/22 06:52:40;;;;;;;42.70;26.77;;;;;;;9.87;100.00;99792.16;5032250;28;20243;-68
2023/01/22 06:55:09;;;;;;;40.27;28.37;;;;;;;9.91;100.00;99796.09;5049565;28;20735;-67
2023/01/22 06:57:36;;;;;;;43.57;27.90;;;;;;;9.98;100.00;99797.00;5051342;28;20258;-67
2023/01/22 07:00:04;;;;;;;46.17;27.83;;;;;;;9.90;100.00;99783.84;5051949;28;20192;-66
2023/01/22 07:02:31;;;;;;;44.13;27.47;;;;;;;10.01;100.00;99797.44;5052222;28;20192;-67
2023/01/22 07:04:58;;;;;;;47.77;27.23;;;;;;;10.07;100.00;99806.53;5052133;28;20622;-66
2023/01/22 07:07:25;;;;;;;39.00;25.17;;;;;;;10.13;100.00;99800.50;5050061;28;20227;-69
2023/01/22 07:09:51;;;;;;;37.63;25.37;;;;;;;10.20;100.00;99799.56;5042115;28;20262;-67
2023/01/22 07:12:19;;;;;;;41.77;29.40;;;;;;;10.20;100.00;99806.69;5033106;28;20722;-67
2023/01/22 07:14:46;;;;;;;42.60;29.67;;;;;;;10.11;100.00;99786.59;5038809;28;20253;-66
2023/01/22 07:17:13;;;;;;;41.17;27.57;;;;;;;10.30;100.00;99807.25;5045320;28;20192;-68
2023/01/22 07:19:39;;;;;;;42.37;28.70;;;;;;;10.39;100.00;99812.25;5045624;28;20329;-65
2023/01/22 07:22:06;;;;;;;42.60;27.77;;;;;;;10.35;100.00;99810.16;5049763;28;20252;-66
2023/01/22 07:24:33;;;;;;;39.43;25.87;;;;;;;10.47;100.00;99808.66;5050457;28;20579;-67
2023/01/22 07:27:02;;;;;;;40.83;26.40;;;;;;;10.54;100.00;99815.69;5051075;28;20188;-66
2023/01/22 07:29:30;;;;;;;39.67;25.80;;;;;;;10.61;100.00;99813.09;5044756;28;20288;-69
2023/01/22 07:31:57;;;;;;;44.27;25.90;;;;;;;10.63;100.00;99835.00;5046991;28;20197;-69
2023/01/22 07:34:23;;;;;;;40.17;26.97;;;;;;;10.63;100.00;99840.31;5049704;28;20199;-71
2023/01/22 07:36:50;;;;;;;41.57;26.70;;;;;;;10.58;100.00;99843.50;5051482;28;20189;-70
2023/01/22 07:39:17;;;;;;;47.83;27.80;;;;;;;10.70;100.00;99841.19;5051992;28;20216;-71
2023/01/22 07:41:43;;;;;;;44.83;29.23;;;;;;;10.86;100.00;99840.94;5051574;28;20193;-71
2023/01/22 07:44:11;;;;;;;39.97;26.67;;;;;;;11.04;100.00;99844.81;5050882;28;20253;-71
2023/01/22 07:46:40;;;;;;;45.03;26.53;;;;;;;11.22;100.00;99841.69;5049574;28;20698;-72
2023/01/22 07:49:07;;;;;;;43.80;26.70;;;;;;;11.38;100.00;99852.06;5033876;28;20202;-71
2023/01/22 07:51:33;;;;;;;41.57;26.80;;;;;;;11.49;98.63;99853.38;5033400;28;20197;-71
2023/01/22 07:54:00;;;;;;;45.87;28.33;;;;;;;11.67;99.09;99857.22;5050483;28;20255;-72
2023/01/22 07:56:27;;;;;;;44.67;26.97;;;;;;;11.84;98.13;99861.22;5049195;28;20201;-73
2023/01/22 07:58:53;;;;;;;57.27;31.70;;;;;;;11.89;96.50;99861.50;5038646;28;20744;-72
2023/01/22 08:01:20;;;;;;;58.13;32.13;;;;;;;11.90;95.68;99875.59;5029337;28;20628;-72
2023/01/22 08:03:48;;;;;;;48.53;28.53;;;;;;;11.85;95.76;99868.22;5031084;28;20272;-71
2023/01/22 08:06:19;;;;;;;49.77;28.60;;;;;;;11.87;95.33;99876.81;5031142;28;20202;-71
2023/01/22 08:08:46;;;;;;;43.73;28.63;;;;;;;11.84;94.76;99876.41;5035277;28;20199;-72
2023/01/22 08:11:13;;;;;;;43.70;29.47;;;;;;;11.84;95.44;99874.53;5031334;28;20195;-72
2023/01/22 08:13:39;;;;;;;46.37;29.03;;;;;;;11.80;95.68;99877.81;5031483;28;20202;-72
2023/01/22 08:16:08;;;;;;;47.37;27.37;;;;;;;11.83;95.46;99883.56;5031551;28;20245;-71
2023/01/22 08:18:34;;;;;;;48.20;28.10;;;;;;;11.86;95.35;99883.16;5031032;28;20697;-73
2023/01/22 08:21:03;;;;;;;42.23;27.87;;;;;;;11.85;95.32;99881.53;5031478;28;20551;-71
2023/01/22 08:23:30;;;;;;;53.20;29.70;;;;;;;11.88;95.30;99882.97;5031842;28;20667;-72
2023/01/22 08:25:59;;;;;;;50.37;30.50;;;;;;;11.89;95.33;99893.44;5051335;28;20189;-72
2023/01/22 08:28:26;;;;;;;47.77;27.43;;;;;;;11.85;95.84;99894.84;5051354;28;20231;-73
2023/01/22 08:30:57;;;;;;;50.57;29.37;;;;;;;11.83;96.00;99888.88;5051267;28;20257;-72
2023/01/22 08:33:23;;;;;;;61.73;33.13;;;;;;;11.78;96.53;99885.97;5050247;28;20201;-71
2023/01/22 08:35:50;;;;;;;58.13;30.93;;;;;;;11.82;97.45;99891.72;5050954;28;20201;-72
2023/01/22 08:38:18;;;;;;;56.73;31.30;;;;;;;11.84;97.97;99906.47;5054052;28;20247;-72
2023/01/22 08:40:49;;;;;;;53.37;30.50;;;;;;;11.85;98.08;99908.16;5050585;28;20256;-72
2023/01/22 08:43:15;;;;;;;60.20;31.90;;;;;;;11.80;97.45;99910.53;5034622;28;20642;-71
2023/01/22 08:45:42;;;;;;;58.07;29.63;;;;;;;11.70;97.50;99904.75;5045123;28;20674;-71
2023/01/22 08:48:09;;;;;;;59.40;34.20;;;;;;;11.70;98.36;99911.91;5054932;28;20206;-72
2023/01/22 08:50:36;;;;;;;62.80;37.10;;;;;;;11.68;99.12;99909.44;5052655;28;20685;-72
2023/01/22 08:53:03;;;;;;;70.63;37.13;;;;;;;11.76;99.77;99909.28;5043828;28;20202;-73
2023/01/22 08:55:31;;;;;;;61.07;34.00;;;;;;;11.87;99.81;99915.91;5034624;28;20205;-72
2023/01/22 08:57:58;;;;;;;53.53;30.80;;;;;;;11.93;99.46;99917.81;5034589;28;20608;-71
2023/01/22 09:00:26;;;;;;;53.30;30.30;;;;;;;12.00;99.54;99919.50;5033888;28;20253;-73
2023/01/22 09:02:57;;;;;;;48.37;29.17;;;;;;;12.06;99.13;99916.06;5053448;28;20263;-71
2023/01/22 09:05:24;;;;;;;49.87;27.20;;;;;;;12.17;99.10;99918.16;5034497;28;20286;-72
2023/01/22 09:07:51;;;;;;;50.40;28.13;;;;;;;12.21;98.14;99916.75;5034749;28;20196;-71
2023/01/22 09:10:18;;;;;;;42.70;26.53;;;;;;;12.14;97.63;99905.28;5034404;28;20261;-72
2023/01/22 09:12:46;;;;;;;39.13;24.73;;;;;;;12.13;98.63;99900.13;5034028;28;20266;-71
2023/01/22 09:15:12;;;;;;;42.87;26.10;;;;;;;12.29;100.00;99891.81;5034406;28;20190;-71
2023/01/22 09:17:41;;;;;;;49.87;28.20;;;;;;;12.47;99.63;99884.94;5034204;28;20198;-71
2023/01/22 09:20:08;;;;;;;45.63;28.17;;;;;;;12.70;99.49;99881.97;5051378;28;20277;-72
2023/01/22 09:22:35;;;;;;;50.60;27.87;;;;;;;12.88;98.26;99896.38;5052951;28;20657;-72
2023/01/22 09:25:03;;;;;;;43.90;25.23;;;;;;;12.96;95.85;99904.19;5054033;28;20226;-72
2023/01/22 09:27:30;;;;;;;54.60;27.83;;;;;;;12.98;95.61;99896.03;5050081;28;20286;-72
2023/01/22 09:29:58;;;;;;;56.87;28.37;;;;;;;13.09;95.15;99895.41;5036393;28;20670;-72
2023/01/22 09:32:25;;;;;;;56.47;27.70;;;;;;;13.15;94.63;99903.44;5053805;28;20207;-73
2023/01/22 09:34:52;;;;;;;55.13;27.50;;;;;;;13.28;95.15;99902.66;5054137;28;20193;-72
2023/01/22 09:37:18;;;;;;;54.83;28.20;;;;;;;13.44;93.88;99908.38;5053374;28;20203;-72
2023/01/22 09:39:48;;;;;;;53.83;27.47;;;;;;;13.52;93.53;99910.06;5049027;28;20301;-72
2023/01/22 09:42:19;;;;;;;40.70;23.13;;;;;;;13.46;90.30;99901.03;5033618;28;20245;-72
2023/01/22 09:44:49;;;;;;;43.00;24.63;;;;;;;13.36;91.91;99892.56;5033459;28;20546;-73
2023/01/22 09:47:21;;;;;;;53.93;26.97;;;;;;;13.25;92.18;99887.03;5032989;28;20192;-72
2023/01/22 09:49:54;;;;;;;57.13;29.07;;;;;;;13.31;92.98;99894.25;5033615;28;20190;-72
2023/01/22 09:52:25;;;;;;;68.17;33.17;;;;;;;13.31;93.10;99897.72;5034200;28;20180;-72
2023/01/22 09:54:52;;;;;;;55.77;30.13;;;;;;;13.28;93.30;99887.44;5033639;28;20207;-72
2023/01/22 09:57:19;;;;;;;66.17;31.43;;;;;;;13.32;93.39;99894.00;5032935;28;20571;-71
2023/01/22 09:59:49;;;;;;;55.40;29.17;;;;;;;13.33;92.26;99895.69;5041671;28;20289;-72
2023/01/22 10:02:26;;;;;;;56.77;29.13;;;;;;;13.36;92.28;99883.78;5032909;28;20237;-72
2023/01/22 10:04:58;;;;;;;53.43;27.10;;;;;;;13.40;92.70;99883.13;5033366;28;20621;-72
2023/01/22 10:07:30;;;;;;;54.60;26.93;;;;;;;13.52;91.70;99889.50;5033121;28;20281;-73
2023/01/22 10:10:03;;;;;;;46.43;24.57;;;;;;;13.59;90.43;99890.34;5032543;28;20192;-73
2023/01/22 10:12:29;;;;;;;43.93;23.17;;;;;;;13.54;89.97;99882.13;5041302;28;20193;-72
2023/01/22 10:14:57;;;;;;;38.83;21.40;;;;;;;13.56;90.62;99889.94;5033732;28;20629;-72
2023/01/22 10:17:30;;;;;;;38.37;20.87;;;;;;;13.56;90.77;99885.41;5052503;28;20201;-71
2023/01/22 10:20:01;;;;;;;37.07;22.27;;;;;;;13.58;90.58;99883.38;5052516;28;20590;-72
2023/01/22 10:22:28;;;;;;;38.43;22.20;;;;;;;13.47;89.30;99886.66;5050359;28;20183;-73
2023/01/22 10:24:56;;;;;;;38.20;23.47;;;;;;;13.43;90.09;99888.06;5032863;28;20283;-71
2023/01/22 10:27:32;;;;;;;52.50;24.57;;;;;;;13.44;90.65;99884.38;5032730;28;20190;-72
2023/01/22 10:30:05;;;;;;;40.20;23.83;;;;;;;13.52;90.50;99878.84;5035408;28;20186;-72
2023/01/22 10:32:33;;;;;;;42.07;24.30;;;;;;;13.43;90.25;99882.75;5052271;28;20189;-71
2023/01/22 10:35:03;;;;;;;35.43;21.23;;;;;;;13.43;91.59;99881.94;5051409;28;20194;-72
2023/01/22 10:37:30;;;;;;;35.37;20.07;;;;;;;13.50;90.77;99882.75;5051424;28;20201;-73
2023/01/22 10:39:59;;;;;;;32.60;19.63;;;;;;;13.57;90.95;99887.06;5052342;28;20677;-71
2023/01/22 10:42:27;;;;;;;34.93;19.77;;;;;;;13.62;90.05;99884.59;5051936;28;20189;-72
2023/01/22 10:44:56;;;;;;;30.47;18.83;;;;;;;13.67;90.17;99887.47;5035322;28;20189;-73
2023/01/22 10:47:26;;;;;;;31.30;19.67;;;;;;;13.73;89.62;99875.94;5031965;28;20205;-72
2023/01/22 10:50:04;;;;;;;25.47;17.27;;;;;;;13.67;89.24;99866.13;5032590;28;20197;-72
2023/01/22 10:52:36;;;;;;;25.23;16.37;;;;;;;13.78;89.28;99868.16;5036659;28;20218;-73
2023/01/22 10:55:04;;;;;;;27.70;18.17;;;;;;;13.90;89.43;99871.00;5051530;28;20188;-72
2023/01/22 10:57:34;;;;;;;29.10;18.57;;;;;;;13.94;88.65;99873.06;5052044;28;20253;-73
2023/01/22 11:00:07;;;;;;;26.93;17.97;;;;;;;13.91;88.53;99869.97;5051866;28;20286;-72
2023/01/22 11:02:35;;;;;;;30.43;19.37;;;;;;;13.87;87.95;99866.91;5041272;28;20613;-72
2023/01/22 11:05:18;;;;;;;28.50;19.10;;;;;;;13.88;88.55;99868.53;5032394;28;20193;-72
2023/01/22 11:07:46;;;;;;;36.97;21.87;;;;;;;13.84;89.08;99878.00;5031897;28;20208;-73
2023/01/22 11:10:19;;;;;;;35.37;22.17;;;;;;;13.80;89.02;99875.97;5031635;28;20258;-73
2023/01/22 11:12:50;;;;;;;37.73;24.20;;;;;;;13.84;89.35;99877.19;5043028;28;20185;-74
2023/01/22 11:15:24;;;;;;;42.50;25.17;;;;;;;13.77;89.56;99869.16;5051475;28;20648;-72
2023/01/22 11:17:54;;;;;;;37.43;22.57;;;;;;;13.83;89.31;99865.69;5052346;28;20192;-71
2023/01/22 11:20:26;;;;;;;33.27;21.03;;;;;;;13.83;88.70;99875.53;5052059;28;20274;-71
2023/01/22 11:23:03;;;;;;;30.60;16.97;;;;;;;13.87;89.23;99882.94;5051969;28;20220;-72
2023/01/22 11:25:38;;;;;;;32.03;18.00;;;;;;;13.98;88.50;99882.31;5032223;28;20629;-72
2023/01/22 11:28:17;;;;;;;28.03;17.57;;;;;;;14.12;87.75;99867.88;5031683;28;20185;-72
2023/01/22 11:30:55;;;;;;;25.20;18.27;;;;;;;14.23;87.69;99879.81;5045457;28;20255;-73